Terminal Aerodrome Forecast
Issued by NWS

Home | Current Version | Previous Version | Text Only | Print | Product List | Glossary On
Versions: 1 2 3 4 5 6 7 8 9 10 11 12 13 14 15
000
FTUS46 KOTX 281120
TAFSFF
TAF
KSFF 281120Z 2812/2912 04003KT P6SM SKC
     FM281800 30005KT P6SM FEW080 FEW200
     FM290400 VRB03KT P6SM FEW200=

USA.gov is the U.S. government's official web portal to all federal, state and local government web resources and services.